Time;durP1;ratioP1;P1;durP2;ratioP2;P2;SDS_P1;SDS_P2;PMS_P1;PMS_P2;Temp;Humidity;BMP_temperature;BMP_pressure;BME280_temperature;BME280_humidity;BME280_pressure;Samples;Min_cycle;Max_cycle;Signal;HPM_P1;HPM_P2
2022/11/01 00:01:56;;;;;;;20.53;14.70;;;14.50;88.70;;;;;;5014903;28;20462;-77
2022/11/01 00:04:25;;;;;;;18.57;13.83;;;14.50;88.60;;;;;;5003490;28;21127;-77
2022/11/01 00:06:53;;;;;;;20.23;14.53;;;14.50;88.50;;;;;;5002482;28;20465;-77
2022/11/01 00:09:21;;;;;;;18.97;13.93;;;14.50;88.50;;;;;;5004841;28;20584;-77
2022/11/01 00:11:50;;;;;;;18.57;13.10;;;14.50;88.50;;;;;;5003917;28;20503;-77
2022/11/01 00:14:19;;;;;;;18.00;13.30;;;14.40;88.50;;;;;;5001467;28;20470;-78
2022/11/01 00:16:49;;;;;;;20.13;15.03;;;14.40;88.70;;;;;;4996981;28;20684;-76
2022/11/01 00:19:17;;;;;;;23.30;18.20;;;14.40;88.70;;;;;;5003586;28;20450;-77
2022/11/01 00:21:45;;;;;;;21.63;17.80;;;14.40;88.50;;;;;;5004820;28;20511;-78
2022/11/01 00:24:13;;;;;;;17.20;13.83;;;14.40;88.50;;;;;;5004232;28;20970;-78
2022/11/01 00:26:42;;;;;;;16.50;12.83;;;14.40;88.60;;;;;;5000410;28;21118;-77
2022/11/01 00:29:11;;;;;;;18.50;12.90;;;14.40;88.60;;;;;;5004454;28;20469;-77
2022/11/01 00:31:38;;;;;;;18.00;13.30;;;14.40;88.50;;;;;;5002784;28;20460;-76
2022/11/01 00:34:08;;;;;;;17.07;13.43;;;14.40;88.50;;;;;;5002416;28;20549;-76
2022/11/01 00:36:36;;;;;;;15.60;12.60;;;14.40;88.40;;;;;;5026403;28;21214;-75
2022/11/01 00:39:05;;;;;;;16.90;12.97;;;14.30;88.40;;;;;;5007624;28;20547;-76
2022/11/01 00:41:34;;;;;;;17.57;13.10;;;14.30;88.40;;;;;;5008775;28;20469;-77
2022/11/01 00:44:02;;;;;;;16.23;12.80;;;14.30;88.40;;;;;;5013961;28;20492;-76
2022/11/01 00:46:32;;;;;;;17.13;12.93;;;14.30;88.50;;;;;;5025392;28;20488;-77
2022/11/01 00:49:00;;;;;;;17.30;13.40;;;14.30;88.50;;;;;;5007329;28;20503;-77
2022/11/01 00:51:29;;;;;;;26.03;19.33;;;14.30;88.50;;;;;;5014116;28;21590;-77
2022/11/01 00:53:57;;;;;;;23.03;16.03;;;14.30;88.50;;;;;;5009960;28;20555;-78
2022/11/01 00:56:25;;;;;;;19.50;14.80;;;14.30;88.40;;;;;;5010818;28;20500;-78
2022/11/01 00:58:53;;;;;;;22.10;15.60;;;14.30;88.40;;;;;;5006281;28;21104;-78
2022/11/01 01:01:21;;;;;;;20.10;14.50;;;14.30;88.40;;;;;;5006077;28;21091;-78
2022/11/01 01:03:49;;;;;;;17.53;13.93;;;14.30;88.40;;;;;;4998003;28;20457;-78
2022/11/01 01:06:17;;;;;;;20.40;14.37;;;14.30;88.30;;;;;;5007869;28;20486;-76
2022/11/01 01:08:47;;;;;;;18.60;14.40;;;14.30;88.30;;;;;;5017165;28;20465;-76
2022/11/01 01:11:15;;;;;;;18.47;13.63;;;14.30;88.20;;;;;;4998930;28;20881;-77
2022/11/01 01:13:43;;;;;;;20.87;15.40;;;14.30;88.20;;;;;;5001896;28;20476;-76
2022/11/01 01:16:12;;;;;;;21.33;14.73;;;14.30;88.20;;;;;;5006384;28;20962;-77
2022/11/01 01:18:40;;;;;;;18.77;14.57;;;14.30;88.20;;;;;;5005361;28;21258;-77
2022/11/01 01:21:08;;;;;;;21.90;15.03;;;14.20;88.20;;;;;;5014462;28;20460;-76
2022/11/01 01:23:37;;;;;;;21.10;15.40;;;14.30;88.20;;;;;;5002282;28;21003;-76
2022/11/01 01:26:08;;;;;;;15.80;12.47;;;14.30;88.20;;;;;;5004716;28;20527;-78
2022/11/01 01:28:36;;;;;;;18.93;12.93;;;14.30;88.20;;;;;;5003873;28;20450;-76
2022/11/01 01:31:12;;;;;;;15.20;11.80;;;14.30;88.10;;;;;;5018827;28;20966;-78
2022/11/01 01:33:41;;;;;;;15.73;12.50;;;14.20;88.10;;;;;;5016170;28;20727;-78
2022/11/01 01:36:09;;;;;;;17.60;12.77;;;14.20;88.10;;;;;;4997975;28;20499;-79
2022/11/01 01:38:37;;;;;;;18.70;13.17;;;14.20;88.10;;;;;;4999207;28;20553;-77
2022/11/01 01:43:51;;;;;;;30.20;18.63;;;14.20;88.00;;;;;;5000012;28;20460;-78
2022/11/01 01:46:20;;;;;;;23.70;17.23;;;14.20;88.00;;;;;;5005203;28;20984;-78
2022/11/01 01:48:53;;;;;;;21.10;15.83;;;14.20;87.90;;;;;;5018463;28;20533;-76
2022/11/01 01:51:25;;;;;;;22.27;14.20;;;14.20;87.90;;;;;;5001618;28;20454;-79
2022/11/01 01:53:57;;;;;;;21.27;16.20;;;14.20;87.90;;;;;;4997903;28;20449;-76
2022/11/01 01:56:30;;;;;;;35.37;23.83;;;14.20;87.90;;;;;;4997240;28;20528;-76
2022/11/01 01:59:02;;;;;;;28.93;21.63;;;14.10;87.90;;;;;;5001703;28;20457;-77
2022/11/01 02:01:31;;;;;;;25.17;18.43;;;14.10;87.90;;;;;;5004859;28;21037;-77
2022/11/01 02:04:00;;;;;;;32.93;24.00;;;14.10;87.90;;;;;;5006274;28;20835;-76
2022/11/01 02:06:29;;;;;;;19.47;14.07;;;14.10;87.80;;;;;;5010473;28;20485;-76
2022/11/01 02:09:00;;;;;;;19.90;13.17;;;14.10;87.50;;;;;;5018541;28;20448;-77
2022/11/01 02:11:29;;;;;;;24.17;16.40;;;14.00;87.40;;;;;;5001499;28;20874;-76
2022/11/01 02:13:58;;;;;;;24.53;18.20;;;13.90;87.70;;;;;;4998518;28;20972;-77
2022/11/01 02:16:52;;;;;;;20.17;15.03;;;13.90;87.80;;;;;;5011156;28;20495;-77
2022/11/01 02:20:05;;;;;;;17.03;13.07;;;13.90;87.70;;;;;;5003135;28;20452;-76
2022/11/01 02:22:51;;;;;;;20.67;14.63;;;13.90;87.80;;;;;;4974097;28;20464;-77
2022/11/01 02:25:34;;;;;;;25.77;18.40;;;13.90;87.90;;;;;;4998972;28;20574;-77
2022/11/01 02:28:19;;;;;;;27.80;18.73;;;13.90;87.90;;;;;;5004545;28;20470;-78
2022/11/01 02:30:59;;;;;;;21.40;16.13;;;14.00;87.90;;;;;;5002065;28;20461;-76
2022/11/01 02:33:34;;;;;;;20.93;14.73;;;14.00;87.80;;;;;;4996551;28;20464;-77
2022/11/01 02:36:05;;;;;;;19.43;14.77;;;14.00;87.80;;;;;;5004509;28;20480;-77
2022/11/01 02:38:40;;;;;;;22.23;16.20;;;14.00;87.60;;;;;;4997991;28;20487;-77
2022/11/01 02:41:13;;;;;;;19.23;14.83;;;14.00;87.60;;;;;;5012853;28;20470;-76
2022/11/01 02:43:47;;;;;;;19.10;14.17;;;14.00;87.70;;;;;;4999452;28;20518;-77
2022/11/01 02:49:05;;;;;;;19.20;14.70;;;14.00;87.60;;;;;;4997614;28;20452;-77
2022/11/01 02:51:35;;;;;;;21.10;14.07;;;14.00;87.60;;;;;;4995011;28;20465;-77
2022/11/01 02:54:06;;;;;;;24.70;15.80;;;14.00;87.70;;;;;;5000977;28;20468;-77
2022/11/01 02:56:35;;;;;;;19.27;14.37;;;14.00;87.70;;;;;;5001824;28;20894;-76
2022/11/01 02:59:03;;;;;;;20.03;13.97;;;14.10;87.60;;;;;;4999918;28;20465;-75
2022/11/01 03:01:34;;;;;;;21.63;14.57;;;14.10;87.60;;;;;;5003798;28;20467;-76
2022/11/01 03:04:04;;;;;;;22.50;15.50;;;14.10;87.60;;;;;;5002060;28;20487;-76
2022/11/01 03:06:37;;;;;;;26.00;17.17;;;14.10;87.70;;;;;;4999320;28;20497;-78
2022/11/01 03:09:10;;;;;;;44.00;29.30;;;14.10;87.60;;;;;;5004701;28;20448;-78
2022/11/01 03:11:47;;;;;;;43.50;27.23;;;14.10;87.60;;;;;;5006307;28;20464;-78
2022/11/01 03:14:23;;;;;;;43.10;25.87;;;14.10;87.70;;;;;;5005772;28;20468;-76
2022/11/01 03:16:58;;;;;;;24.53;15.30;;;14.10;87.80;;;;;;5005541;28;20504;-76
2022/11/01 03:19:35;;;;;;;22.80;16.90;;;14.10;87.70;;;;;;4997069;28;20484;-76
2022/11/01 03:22:09;;;;;;;42.80;26.07;;;14.10;87.80;;;;;;5005029;28;20494;-76
2022/11/01 03:24:44;;;;;;;65.07;38.73;;;14.20;87.90;;;;;;5003236;28;21318;-76
2022/11/01 03:27:17;;;;;;;45.13;28.17;;;14.20;87.90;;;;;;5021358;28;20879;-77
2022/11/01 03:29:55;;;;;;;48.30;26.13;;;14.20;87.90;;;;;;5001460;28;20464;-76
2022/11/01 03:32:26;;;;;;;41.70;26.97;;;14.20;87.90;;;;;;5000904;28;20465;-76
2022/11/01 03:34:58;;;;;;;30.73;20.30;;;14.20;88.00;;;;;;5005700;28;20456;-76
2022/11/01 03:37:27;;;;;;;27.10;18.67;;;14.20;88.00;;;;;;5004622;28;20854;-77
2022/11/01 03:39:58;;;;;;;26.13;17.47;;;14.30;88.00;;;;;;5006173;28;20471;-76
2022/11/01 03:42:26;;;;;;;23.10;16.30;;;14.30;88.00;;;;;;4999177;28;20454;-78
2022/11/01 03:44:59;;;;;;;22.23;14.50;;;14.30;88.00;;;;;;5013907;28;20515;-78
2022/11/01 03:47:27;;;;;;;19.57;12.80;;;14.30;88.00;;;;;;5000397;28;20539;-77
2022/11/01 03:50:17;;;;;;;17.90;13.07;;;14.30;87.90;;;;;;5015602;28;20954;-76
2022/11/01 03:52:46;;;;;;;18.00;13.37;;;14.40;87.90;;;;;;5001283;28;20457;-77
2022/11/01 03:55:18;;;;;;;16.93;12.93;;;14.30;87.90;;;;;;5006262;28;20464;-78
2022/11/01 03:57:47;;;;;;;19.07;13.50;;;14.30;87.80;;;;;;4999641;28;20472;-78
2022/11/01 04:00:16;;;;;;;18.67;13.80;;;14.40;87.90;;;;;;5007625;28;20990;-78
2022/11/01 04:02:44;;;;;;;16.97;12.50;;;14.40;87.90;;;;;;5000449;28;20454;-77
2022/11/01 04:05:13;;;;;;;19.60;13.30;;;14.30;87.80;;;;;;5005505;28;20454;-78
2022/11/01 04:07:43;;;;;;;16.60;12.57;;;14.30;87.80;;;;;;5003838;28;20468;-77
2022/11/01 04:10:12;;;;;;;21.03;11.73;;;14.30;87.90;;;;;;5015271;28;20500;-78
2022/11/01 04:12:40;;;;;;;16.40;11.73;;;14.40;87.80;;;;;;5004024;28;20844;-78
2022/11/01 04:20:52;;;;;;;21.27;13.90;;;14.40;87.80;;;;;;5002865;28;20453;-78
2022/11/01 04:23:21;;;;;;;17.90;12.40;;;14.40;87.80;;;;;;4996718;28;20453;-77
2022/11/01 04:25:50;;;;;;;15.80;11.60;;;14.40;87.80;;;;;;5000644;28;20488;-76
2022/11/01 04:28:18;;;;;;;19.13;12.70;;;14.40;87.80;;;;;;5004248;28;20451;-78
2022/11/01 04:30:46;;;;;;;19.10;12.83;;;14.40;87.90;;;;;;5000243;28;20601;-77
2022/11/01 04:33:14;;;;;;;17.27;11.73;;;14.40;87.90;;;;;;5005528;28;20464;-77
2022/11/01 04:35:42;;;;;;;17.63;11.33;;;14.40;87.80;;;;;;5002394;28;21025;-78
2022/11/01 04:38:10;;;;;;;16.47;11.17;;;14.40;87.80;;;;;;5003324;28;20831;-76
2022/11/01 04:40:40;;;;;;;14.00;11.20;;;14.40;87.80;;;;;;5019418;28;21287;-76
2022/11/01 04:43:08;;;;;;;14.20;10.27;;;14.40;87.90;;;;;;5002076;28;20458;-77
2022/11/01 04:45:36;;;;;;;20.00;13.40;;;14.40;87.90;;;;;;5012841;28;20494;-76
2022/11/01 04:48:06;;;;;;;19.07;12.30;;;14.40;87.80;;;;;;4992993;28;20933;-76
2022/11/01 04:50:35;;;;;;;17.80;12.10;;;14.40;87.60;;;;;;5006039;28;20480;-77
2022/11/01 04:53:03;;;;;;;15.60;12.23;;;14.30;87.80;;;;;;5005048;28;20449;-76
2022/11/01 04:55:31;;;;;;;14.40;11.63;;;14.30;87.90;;;;;;4996917;28;20952;-76
2022/11/01 04:58:00;;;;;;;15.70;11.77;;;14.30;87.80;;;;;;5000149;28;20449;-78
2022/11/01 05:00:28;;;;;;;15.50;10.23;;;14.30;87.90;;;;;;5003461;28;20477;-77
2022/11/01 05:03:02;;;;;;;15.17;10.63;;;14.30;87.90;;;;;;5018853;28;20471;-76
2022/11/01 05:05:31;;;;;;;15.80;13.00;;;14.40;87.80;;;;;;4997262;28;20456;-78
2022/11/01 05:08:03;;;;;;;18.93;14.20;;;14.30;87.70;;;;;;5005497;28;20492;-77
2022/11/01 05:10:32;;;;;;;18.13;13.70;;;14.30;87.70;;;;;;5000834;28;21145;-78
2022/11/01 05:13:01;;;;;;;19.37;14.43;;;14.30;87.70;;;;;;5008600;28;20456;-77
2022/11/01 05:15:30;;;;;;;18.30;13.93;;;14.20;87.70;;;;;;4997567;28;20875;-78
2022/11/01 05:17:58;;;;;;;19.27;13.07;;;14.20;87.90;;;;;;5005337;28;20921;-75
2022/11/01 05:20:26;;;;;;;17.90;14.10;;;14.20;88.00;;;;;;5004545;28;20541;-76
2022/11/01 05:22:58;;;;;;;18.47;14.13;;;14.20;87.90;;;;;;5003571;28;20462;-78
2022/11/01 05:25:27;;;;;;;23.20;17.53;;;14.20;88.10;;;;;;4999857;28;21254;-78
2022/11/01 05:28:04;;;;;;;22.83;15.43;;;14.20;88.20;;;;;;5000506;28;20507;-78
2022/11/01 05:30:32;;;;;;;23.97;15.07;;;14.20;88.30;;;;;;5002600;28;20952;-77
2022/11/01 05:33:01;;;;;;;23.87;15.97;;;14.20;88.30;;;;;;5012510;28;20457;-78
2022/11/01 05:35:30;;;;;;;23.43;15.80;;;14.30;88.30;;;;;;5001585;28;20462;-77
2022/11/01 05:37:58;;;;;;;23.57;15.70;;;14.30;88.40;;;;;;4997852;28;20459;-77
2022/11/01 05:40:26;;;;;;;24.87;16.73;;;14.30;88.40;;;;;;4997050;28;20564;-77
2022/11/01 05:42:54;;;;;;;25.40;17.77;;;14.40;88.50;;;;;;5014041;28;20468;-77
2022/11/01 05:45:24;;;;;;;24.83;17.17;;;14.40;88.60;;;;;;5004872;28;21077;-77
2022/11/01 05:47:52;;;;;;;26.90;17.83;;;14.40;88.50;;;;;;5000432;28;20453;-77
2022/11/01 05:50:20;;;;;;;26.70;16.63;;;14.50;88.60;;;;;;4998875;28;20473;-76
2022/11/01 05:52:48;;;;;;;28.00;17.50;;;14.50;88.60;;;;;;4997930;28;20491;-79
2022/11/01 05:55:17;;;;;;;30.13;17.90;;;14.60;88.70;;;;;;5002721;28;21242;-76
2022/11/01 05:57:45;;;;;;;26.43;17.40;;;14.60;88.90;;;;;;5000363;28;20442;-77
2022/11/01 06:00:18;;;;;;;35.10;16.87;;;14.60;88.90;;;;;;5002356;28;20479;-77
2022/11/01 06:02:47;;;;;;;24.83;15.43;;;14.70;88.80;;;;;;5001610;28;20530;-77
2022/11/01 06:05:15;;;;;;;23.73;14.93;;;14.80;88.90;;;;;;5000979;28;20553;-78
2022/11/01 06:07:43;;;;;;;26.20;17.17;;;14.80;88.90;;;;;;5018832;28;20465;-78
2022/11/01 06:10:11;;;;;;;25.17;16.37;;;14.80;88.90;;;;;;4997942;28;20926;-78
2022/11/01 06:12:39;;;;;;;27.97;15.17;;;14.80;89.00;;;;;;5002933;28;20534;-78
2022/11/01 06:15:08;;;;;;;26.67;15.83;;;14.90;89.00;;;;;;5001498;28;20519;-78
2022/11/01 06:17:36;;;;;;;25.07;14.07;;;14.90;89.00;;;;;;5002816;28;20504;-78
2022/11/01 06:20:06;;;;;;;22.00;14.83;;;14.90;89.00;;;;;;5003018;28;20530;-78
2022/11/01 06:22:35;;;;;;;26.23;14.80;;;15.00;89.00;;;;;;4996292;28;20821;-78
2022/11/01 06:25:03;;;;;;;24.27;14.00;;;15.00;88.90;;;;;;4996559;28;20892;-78
2022/11/01 06:27:32;;;;;;;26.30;14.80;;;15.00;89.00;;;;;;4989279;28;20938;-78
2022/11/01 06:30:00;;;;;;;29.13;14.97;;;15.00;88.90;;;;;;5002866;28;20830;-78
2022/11/01 06:32:28;;;;;;;22.87;15.43;;;15.00;88.90;;;;;;5001691;28;20458;-78
2022/11/01 06:34:55;;;;;;;25.80;15.20;;;15.00;88.90;;;;;;5001460;28;20449;-77
2022/11/01 06:37:25;;;;;;;27.10;15.40;;;15.00;88.90;;;;;;5000292;28;20508;-78
2022/11/01 06:39:53;;;;;;;24.27;14.33;;;15.00;89.00;;;;;;5000530;28;20909;-77
2022/11/01 06:42:21;;;;;;;21.13;14.90;;;15.00;89.00;;;;;;5015006;28;20462;-77
2022/11/01 06:44:49;;;;;;;25.97;15.43;;;15.00;88.90;;;;;;5002849;28;20530;-78
2022/11/01 06:47:17;;;;;;;25.20;15.40;;;15.00;88.90;;;;;;5003098;28;20919;-77
2022/11/01 06:49:45;;;;;;;28.70;14.33;;;15.00;89.00;;;;;;5003754;28;21106;-78
2022/11/01 06:52:13;;;;;;;19.60;14.70;;;15.00;89.00;;;;;;5005958;28;20449;-77
2022/11/01 06:54:42;;;;;;;23.53;13.63;;;15.10;89.00;;;;;;5007979;28;20511;-78
2022/11/01 06:57:10;;;;;;;28.53;15.17;;;15.00;89.00;;;;;;5006929;28;20485;-77
2022/11/01 06:59:38;;;;;;;24.20;15.30;;;15.10;89.00;;;;;;5007351;28;20492;-76
2022/11/01 07:02:06;;;;;;;23.90;12.77;;;15.10;88.90;;;;;;5008875;28;20445;-78
2022/11/01 07:04:40;;;;;;;20.43;13.37;;;15.10;88.90;;;;;;5002682;28;20892;-76
2022/11/01 07:07:08;;;;;;;20.00;12.77;;;15.10;88.90;;;;;;5012702;28;20481;-78
2022/11/01 07:09:36;;;;;;;24.37;13.40;;;15.10;89.00;;;;;;5007916;28;20449;-77
2022/11/01 07:12:06;;;;;;;25.10;15.37;;;15.20;89.00;;;;;;5012859;28;20456;-78
2022/11/01 07:14:34;;;;;;;21.00;14.27;;;15.20;89.00;;;;;;5014453;28;20457;-78
2022/11/01 07:17:07;;;;;;;19.33;13.77;;;15.20;89.00;;;;;;5021781;28;20542;-78
2022/11/01 07:19:37;;;;;;;25.10;14.50;;;15.20;89.00;;;;;;5004289;28;20446;-77
2022/11/01 07:22:05;;;;;;;29.87;15.37;;;15.20;89.00;;;;;;5002847;28;20456;-78
2022/11/01 07:24:33;;;;;;;24.23;13.53;;;15.20;89.00;;;;;;5000190;28;20477;-77
2022/11/01 07:27:01;;;;;;;22.20;12.13;;;15.20;89.00;;;;;;5004397;28;20480;-78
2022/11/01 07:29:30;;;;;;;18.53;11.43;;;15.20;89.00;;;;;;5008687;28;20491;-77
2022/11/01 07:32:00;;;;;;;24.63;11.97;;;15.30;89.00;;;;;;5000718;28;20518;-78
2022/11/01 07:34:28;;;;;;;17.83;10.80;;;15.30;89.00;;;;;;5021256;28;20471;-76
2022/11/01 07:36:56;;;;;;;16.87;10.90;;;15.30;89.00;;;;;;5003123;28;20536;-77
2022/11/01 07:39:24;;;;;;;18.53;11.30;;;15.30;89.00;;;;;;5019565;28;21026;-76
2022/11/01 07:41:53;;;;;;;19.40;11.47;;;15.30;89.00;;;;;;5001673;28;20492;-78
2022/11/01 07:44:21;;;;;;;19.33;10.63;;;15.30;89.10;;;;;;5017080;28;21620;-78
2022/11/01 07:46:50;;;;;;;15.60;9.90;;;15.30;89.10;;;;;;5004824;28;20496;-77
2022/11/01 07:49:18;;;;;;;17.73;11.03;;;15.30;89.10;;;;;;4999921;28;20530;-77
2022/11/01 07:51:46;;;;;;;14.83;10.07;;;15.40;89.10;;;;;;5025196;28;21026;-77
2022/11/01 07:54:14;;;;;;;17.30;9.07;;;15.40;89.10;;;;;;5000479;28;20978;-77
2022/11/01 07:56:42;;;;;;;14.73;8.60;;;15.40;89.10;;;;;;5002298;28;20468;-77
2022/11/01 07:59:10;;;;;;;13.57;8.03;;;15.40;89.10;;;;;;5001334;28;20503;-76
2022/11/01 08:01:38;;;;;;;15.40;8.20;;;15.40;89.20;;;;;;4998656;28;20477;-77
2022/11/01 08:04:08;;;;;;;15.57;9.40;;;15.40;89.20;;;;;;5010288;28;21159;-75
2022/11/01 08:06:36;;;;;;;13.70;8.90;;;15.40;89.20;;;;;;5005056;28;20563;-76
2022/11/01 08:09:04;;;;;;;14.33;8.17;;;15.50;89.30;;;;;;5002327;28;21101;-77
2022/11/01 08:11:32;;;;;;;9.47;6.20;;;15.50;89.20;;;;;;5004790;28;21168;-76
2022/11/01 08:14:00;;;;;;;10.70;6.23;;;15.50;89.20;;;;;;5002396;28;20532;-76
2022/11/01 08:16:32;;;;;;;15.30;6.47;;;15.60;89.20;;;;;;5022338;28;21036;-77
2022/11/01 08:19:00;;;;;;;13.10;5.70;;;15.60;89.10;;;;;;5002601;28;20452;-76
2022/11/01 08:21:30;;;;;;;10.60;5.97;;;15.60;89.10;;;;;;4999840;28;20503;-76
2022/11/01 08:23:58;;;;;;;16.50;7.40;;;15.60;89.10;;;;;;5012237;28;20511;-76
2022/11/01 08:26:26;;;;;;;10.93;6.20;;;15.70;89.10;;;;;;5000802;28;20504;-76
2022/11/01 08:28:54;;;;;;;9.10;6.10;;;15.70;89.00;;;;;;5003807;28;20839;-76
2022/11/01 08:31:22;;;;;;;9.10;5.60;;;15.70;89.00;;;;;;5001827;28;20532;-76
2022/11/01 08:33:50;;;;;;;9.90;5.60;;;15.70;89.00;;;;;;5015038;28;20458;-77
2022/11/01 08:36:18;;;;;;;10.63;5.77;;;15.70;89.00;;;;;;5000249;28;20476;-78
2022/11/01 08:38:47;;;;;;;10.90;6.10;;;15.70;89.10;;;;;;5005533;28;20571;-78
2022/11/01 08:41:16;;;;;;;13.13;5.90;;;15.70;89.10;;;;;;4996774;28;20488;-78
2022/11/01 08:43:44;;;;;;;9.30;5.07;;;15.70;89.00;;;;;;5017245;28;20453;-77
2022/11/01 08:46:11;;;;;;;8.90;5.17;;;15.80;89.00;;;;;;5003180;28;21053;-78
2022/11/01 08:48:39;;;;;;;8.27;4.63;;;15.70;89.00;;;;;;5001941;28;20563;-78
2022/11/01 08:51:08;;;;;;;8.13;4.77;;;15.80;89.10;;;;;;5001975;28;20452;-78
2022/11/01 08:53:36;;;;;;;10.27;4.27;;;15.80;89.10;;;;;;4998810;28;20452;-78
2022/11/01 08:56:05;;;;;;;11.20;4.07;;;15.80;89.10;;;;;;5002450;28;20488;-77
2022/11/01 08:58:33;;;;;;;10.43;4.77;;;15.90;89.10;;;;;;4995826;28;20979;-76
2022/11/01 09:01:01;;;;;;;9.97;4.07;;;15.90;89.10;;;;;;5016682;28;20564;-77
2022/11/01 09:03:29;;;;;;;6.87;4.20;;;15.90;89.10;;;;;;5002881;28;20515;-78
2022/11/01 09:05:57;;;;;;;9.43;3.70;;;15.90;89.10;;;;;;5003826;28;20493;-78
2022/11/01 09:08:25;;;;;;;5.80;3.67;;;16.00;89.10;;;;;;4999389;28;20519;-76
2022/11/01 09:10:57;;;;;;;7.03;3.47;;;16.00;89.10;;;;;;5002139;28;20552;-78
2022/11/01 09:13:27;;;;;;;6.87;3.40;;;16.00;89.10;;;;;;4999971;28;20815;-77
2022/11/01 09:15:55;;;;;;;7.63;4.27;;;16.00;89.10;;;;;;5007987;28;20938;-78
2022/11/01 09:18:29;;;;;;;7.40;3.50;;;16.10;89.10;;;;;;4996141;28;20472;-77
2022/11/01 09:20:57;;;;;;;9.40;3.87;;;16.10;89.10;;;;;;5009073;28;20489;-78
2022/11/01 09:23:25;;;;;;;8.17;3.80;;;16.10;89.00;;;;;;5011957;28;20500;-76
2022/11/01 09:25:53;;;;;;;9.27;3.50;;;16.10;89.00;;;;;;4999432;28;20490;-78
2022/11/01 09:28:21;;;;;;;7.53;3.87;;;16.20;89.10;;;;;;5015338;28;20457;-76
2022/11/01 09:30:50;;;;;;;8.23;3.03;;;16.20;89.10;;;;;;4999118;28;20887;-77
2022/11/01 09:33:39;;;;;;;8.07;2.93;;;16.20;89.10;;;;;;4998881;28;20568;-78
2022/11/01 09:36:07;;;;;;;11.03;3.10;;;16.20;89.00;;;;;;5001653;28;20491;-77
2022/11/01 09:38:35;;;;;;;7.70;3.90;;;16.30;88.80;;;;;;5004467;28;20592;-77
2022/11/01 09:41:11;;;;;;;9.23;3.40;;;16.30;88.80;;;;;;5002321;28;20542;-78
2022/11/01 09:43:42;;;;;;;7.53;3.30;;;16.30;88.80;;;;;;5001815;28;20483;-78
2022/11/01 09:46:16;;;;;;;6.47;3.53;;;16.40;88.80;;;;;;4997842;28;20478;-77
2022/11/01 09:48:45;;;;;;;9.13;3.27;;;16.40;88.80;;;;;;5004163;28;21050;-78
2022/11/01 09:51:20;;;;;;;8.90;3.20;;;16.40;88.80;;;;;;5005757;28;20453;-77
2022/11/01 09:53:50;;;;;;;10.20;3.50;;;16.40;88.80;;;;;;5003811;28;20456;-76
2022/11/01 09:56:25;;;;;;;6.17;3.30;;;16.50;88.80;;;;;;5007300;28;20480;-77
2022/11/01 09:59:06;;;;;;;5.83;2.70;;;16.60;88.70;;;;;;5003483;28;20518;-78
2022/11/01 10:01:48;;;;;;;7.80;3.10;;;16.60;88.70;;;;;;5004394;28;20504;-78
2022/11/01 10:04:49;;;;;;;5.20;2.63;;;16.70;88.60;;;;;;5001494;28;20444;-77
2022/11/01 10:07:25;;;;;;;8.90;2.70;;;16.70;88.50;;;;;;4979017;28;20522;-76
2022/11/01 10:10:02;;;;;;;6.30;2.50;;;16.80;88.30;;;;;;5016325;28;20526;-78
2022/11/01 10:12:44;;;;;;;8.83;2.63;;;16.80;88.30;;;;;;4999952;28;20466;-77
2022/11/01 10:15:32;;;;;;;7.67;2.90;;;16.80;88.00;;;;;;5003598;28;20457;-77
2022/11/01 10:18:12;;;;;;;8.73;3.27;;;16.90;88.00;;;;;;5001579;28;20453;-77
2022/11/01 10:20:41;;;;;;;6.33;2.20;;;16.90;87.90;;;;;;5003794;28;20473;-76
2022/11/01 10:23:15;;;;;;;8.17;2.40;;;16.90;87.70;;;;;;4997888;28;20510;-78
2022/11/01 10:25:47;;;;;;;9.63;3.17;;;16.90;87.80;;;;;;4997484;28;20483;-78
2022/11/01 10:28:21;;;;;;;5.93;3.03;;;16.90;87.60;;;;;;5000281;28;20450;-77
2022/11/01 10:30:55;;;;;;;6.50;2.70;;;16.90;87.60;;;;;;5017687;28;20886;-76
2022/11/01 10:33:29;;;;;;;10.77;2.50;;;16.90;87.40;;;;;;5001187;28;20461;-77
2022/11/01 10:36:01;;;;;;;6.43;2.67;;;16.90;87.40;;;;;;5000853;28;20481;-77
2022/11/01 10:38:37;;;;;;;6.10;3.10;;;16.90;87.40;;;;;;4997059;28;20807;-78
2022/11/01 10:41:31;;;;;;;8.97;2.73;;;17.00;87.30;;;;;;4999682;28;20488;-77
2022/11/01 10:44:02;;;;;;;8.90;3.03;;;17.00;87.30;;;;;;4999546;28;20461;-77
2022/11/01 10:46:36;;;;;;;8.57;3.10;;;17.00;87.20;;;;;;4998999;28;20486;-77
2022/11/01 10:49:13;;;;;;;4.90;2.27;;;17.00;87.10;;;;;;5002936;28;20463;-77
2022/11/01 10:51:42;;;;;;;6.57;3.20;;;17.10;87.00;;;;;;4997394;28;20448;-76
2022/11/01 10:54:17;;;;;;;6.63;3.03;;;17.10;87.00;;;;;;5001247;28;20468;-78
2022/11/01 10:56:48;;;;;;;9.87;3.17;;;17.10;87.00;;;;;;5002704;28;20481;-76
2022/11/01 10:59:21;;;;;;;11.70;2.50;;;17.10;86.90;;;;;;4995902;28;20506;-77
2022/11/01 11:01:51;;;;;;;7.00;2.77;;;17.20;86.70;;;;;;5003223;28;20485;-77
2022/11/01 11:04:23;;;;;;;7.80;2.63;;;17.20;86.60;;;;;;4992824;28;20477;-77
2022/11/01 11:06:51;;;;;;;7.20;2.53;;;17.20;86.40;;;;;;5002332;28;20536;-76
2022/11/01 11:09:24;;;;;;;7.30;2.80;;;17.20;86.40;;;;;;4996670;28;20460;-78
2022/11/01 11:11:56;;;;;;;7.43;2.70;;;17.20;86.20;;;;;;4998278;28;20445;-76
2022/11/01 11:14:25;;;;;;;6.93;2.80;;;17.20;86.20;;;;;;5013930;28;20449;-78
2022/11/01 11:16:56;;;;;;;5.83;2.40;;;17.20;86.10;;;;;;5001407;28;20611;-77
2022/11/01 11:19:33;;;;;;;8.10;2.67;;;17.20;86.00;;;;;;5016300;28;21248;-75
2022/11/01 11:22:05;;;;;;;10.30;2.90;;;17.20;86.00;;;;;;5002376;28;20480;-77
2022/11/01 11:24:35;;;;;;;5.03;2.37;;;17.20;86.00;;;;;;5003231;28;20461;-76
2022/11/01 11:27:10;;;;;;;5.70;2.30;;;17.10;85.90;;;;;;5002262;28;20472;-76
2022/11/01 11:29:47;;;;;;;6.67;2.70;;;17.10;85.80;;;;;;5003528;28;21099;-76
2022/11/01 11:32:18;;;;;;;6.77;2.00;;;17.00;85.80;;;;;;4999400;28;20444;-77
2022/11/01 11:34:54;;;;;;;5.30;1.50;;;16.90;85.50;;;;;;5003982;28;20695;-77
2022/11/01 11:37:24;;;;;;;4.27;1.70;;;16.80;85.40;;;;;;5004237;28;20477;-78
2022/11/01 11:40:19;;;;;;;6.00;1.80;;;16.80;85.40;;;;;;5003007;28;20496;-78
2022/11/01 11:42:48;;;;;;;6.33;1.77;;;16.70;85.00;;;;;;5005303;28;20538;-77
2022/11/01 11:45:23;;;;;;;6.50;1.70;;;16.60;85.10;;;;;;5001662;28;20452;-78
2022/11/01 11:47:51;;;;;;;5.20;2.00;;;16.60;85.10;;;;;;5006037;28;20830;-76
2022/11/01 11:50:32;;;;;;;8.40;1.70;;;16.50;85.10;;;;;;5001699;28;20463;-77
2022/11/01 11:53:05;;;;;;;11.23;1.93;;;16.50;85.10;;;;;;5006119;28;20914;-76
2022/11/01 11:55:42;;;;;;;5.63;1.70;;;16.40;85.10;;;;;;5001529;28;20446;-76
2022/11/01 11:58:21;;;;;;;6.07;1.90;;;16.40;84.90;;;;;;5003695;28;20460;-78
2022/11/01 12:00:52;;;;;;;6.40;1.57;;;16.40;84.70;;;;;;4999882;28;20510;-78
2022/11/01 12:03:21;;;;;;;6.40;1.40;;;16.40;84.80;;;;;;5003185;28;20481;-77
2022/11/01 12:06:00;;;;;;;5.70;1.77;;;16.30;84.70;;;;;;5001090;28;21027;-76
2022/11/01 12:08:43;;;;;;;5.30;1.50;;;16.30;84.60;;;;;;5005581;28;20445;-77
2022/11/01 12:11:12;;;;;;;9.53;2.00;;;16.30;84.50;;;;;;5000925;28;20959;-76
2022/11/01 12:13:43;;;;;;;6.97;1.90;;;16.30;84.40;;;;;;5005016;28;20464;-77
2022/11/01 12:16:18;;;;;;;4.47;1.30;;;16.30;84.30;;;;;;5004353;28;20549;-76
2022/11/01 12:18:49;;;;;;;7.33;1.60;;;16.30;84.30;;;;;;5002652;28;20471;-78
2022/11/01 12:21:22;;;;;;;5.90;1.57;;;16.40;84.10;;;;;;5000673;28;20461;-78
2022/11/01 12:23:53;;;;;;;5.13;1.50;;;16.30;84.00;;;;;;5001633;28;20491;-76
2022/11/01 12:26:23;;;;;;;6.50;2.03;;;16.30;83.90;;;;;;5019299;28;21033;-76
2022/11/01 12:29:00;;;;;;;9.23;1.90;;;16.30;83.80;;;;;;5005843;28;20465;-77
2022/11/01 12:31:29;;;;;;;5.53;1.20;;;16.30;83.60;;;;;;5001632;28;20457;-77
2022/11/01 12:34:04;;;;;;;8.67;1.60;;;16.30;83.70;;;;;;5003197;28;20461;-77
2022/11/01 12:36:39;;;;;;;5.27;1.57;;;16.30;83.60;;;;;;5005961;28;20473;-76
2022/11/01 12:39:17;;;;;;;7.50;1.20;;;16.30;83.50;;;;;;5002814;28;21101;-76
2022/11/01 12:41:50;;;;;;;6.13;1.43;;;16.40;83.50;;;;;;5003174;28;20463;-76
2022/11/01 12:44:31;;;;;;;10.53;2.10;;;16.40;83.40;;;;;;4998769;28;20484;-77
2022/11/01 12:47:05;;;;;;;4.27;1.80;;;16.40;83.20;;;;;;5004969;28;20480;-76
2022/11/01 12:49:40;;;;;;;6.43;1.53;;;16.40;83.10;;;;;;4998732;28;20459;-77
2022/11/01 12:52:19;;;;;;;4.50;1.53;;;16.40;83.10;;;;;;5006014;28;20864;-76
2022/11/01 12:54:54;;;;;;;5.53;1.57;;;16.40;82.90;;;;;;4999846;28;20466;-77
2022/11/01 12:57:22;;;;;;;6.00;1.30;;;16.50;82.90;;;;;;5002869;28;20488;-77
2022/11/01 12:59:51;;;;;;;5.50;1.80;;;16.50;82.90;;;;;;5001180;28;20465;-78
2022/11/01 13:02:43;;;;;;;6.73;1.67;;;16.50;82.90;;;;;;5001576;28;20515;-77
2022/11/01 13:05:18;;;;;;;6.20;1.53;;;16.50;82.80;;;;;;5003988;28;20527;-77